Ulsteinvik  Ulsteinvik


Beaufortskalaen  Beaufortskalaen


Air quality index  Air quality index


Nedbørsradar more information rain snow radar


Skogbrann Fra: 21-04-2019 23:00 Til: 22-04-2019 22:59 Advarsel for: Skogbrann Nivå: Gult info button

Nære METAR rapporter

   
ENAL - Ålesund
oppdatert: 21-04-2019 14:50
Lett regn, For det meste skyet  
Lett regn, For det meste skyet  
   Vind: ØNØ 3.6 m/s
Vind: ØNØ 3.6 m/s
Temperatur: 8°C
Wind Chill: 6°C
Duggpunkt: 7°C
Fuktighet: 93%
Barometer: 1018 hPa
Skyer: For det meste skyet
Sikt: More than 10 km
Skydetaljer: få skyer 91.4 m,
Delvis Skyet 182.9 m,
For det meste skyet 365.8 m
ENAL 211250Z 07007KT 9999 -RA FEW003 SCT006 BKN012 08/07 Q1018
ENOV - Ørsta
oppdatert: 21-04-2019 14:20
Lett yr, For det meste skyet  
Lett yr, For det meste skyet  
   Vind: varierer 1.5 m/s
Vind: varierer 1.5 m/s
Temperatur: 10°C
Wind Chill: 9°C
Duggpunkt: 6°C
Fuktighet: 76%
Barometer: 1018 hPa
Skyer: For det meste skyet
Sikt: More than 10 km
Skydetaljer: få skyer 457.2 m,
Delvis Skyet 1036.3 m,
For det meste skyet 1219.2 m
ENOV 211220Z VRB03KT 9999 -DZ FEW015 SCT034 BKN040 10/06 Q1018 RMK WIND 2175FT 15018KT
ENML - Tafjorden
oppdatert: 21-04-2019 14:20
Spredte Regnbyger, Regn, yr, Overskyet  
Spredte Regnbyger, Regn, yr, Overskyet  
   Vind: Øst 2.1 m/s
Vind: Øst 2.1 m/s
Temperatur: 9°C
Wind Chill: 8°C
Duggpunkt: 7°C
Fuktighet: 87%
Barometer: 1019 hPa
Skyer: Overskyet
Sikt: More than 10 km
Skydetaljer: få skyer 152.4 m,
Delvis Skyet 304.8 m,
Overskyet 457.2 m
ENML 211220Z 10004KT 9999 -SHRADZ FEW005 SCT010 OVC015 09/07 Q1019
ENML - Molde
oppdatert: 21-04-2019 14:20
Spredte Regnbyger, Regn, yr, Overskyet  
Spredte Regnbyger, Regn, yr, Overskyet  
   Vind: Øst 2.1 m/s
Vind: Øst 2.1 m/s
Temperatur: 9°C
Wind Chill: 8°C
Duggpunkt: 7°C
Fuktighet: 87%
Barometer: 1019 hPa
Skyer: Overskyet
Sikt: More than 10 km
Skydetaljer: få skyer 152.4 m,
Delvis Skyet 304.8 m,
Overskyet 457.2 m
ENML 211220Z 10004KT 9999 -SHRADZ FEW005 SCT010 OVC015 09/07 Q1019
ENFL - Florø
oppdatert: 21-04-2019 14:20
Overskyet  
Overskyet  
   Vind: ØSØ 7.2 m/s
Vind: ØSØ 7.2 m/s
Temperatur: 10°C
Wind Chill: 7°C
Duggpunkt: 7°C
Fuktighet: 82%
Barometer: 1018 hPa
Skyer: Overskyet
Sikt: 10 km
Skydetaljer: få skyer 1493.5 m,
Overskyet 1828.8 m
ENFL 211220Z AUTO 11014KT 9999NDV // FEW049/// OVC060/// 10/07 Q1018
ENVA - Trondheim
oppdatert: 21-04-2019 14:50
Lett regn, For det meste skyet  
Lett regn, For det meste skyet  
   Vind: Stille
Vind: Stille
Temperatur: 9°C
Duggpunkt: 6°C
Fuktighet: 82%
Barometer: 1020 hPa
Skyer: For det meste skyet
Sikt: More than 10 km
Skydetaljer: få skyer 274.3 m,
Delvis Skyet 701 m,
For det meste skyet 944.9 m
ENVA 211250Z 00000KT 9999 -RA FEW009 SCT023 BKN031 09/06 Q1020 NOSIG RMK WIND 670FT VRB02KT
ENBR - Bergen
oppdatert: 21-04-2019 14:50
For det meste skyet  
For det meste skyet  
   Vind: Sør 8.2 m/s
Vind: Sør 8.2 m/s
Temperatur: 16°C
Duggpunkt: 1°C
Fuktighet: 36%
Barometer: 1019 hPa
Skyer: For det meste skyet
Sikt: More than 10 km
Skydetaljer: få skyer 1219.2 m,
For det meste skyet 2590.8 m
ENBR 211250Z 18016KT 9999 FEW040 BKN085 16/01 Q1019 NOSIG RMK WIND 1200FT 15021KT
ENZV - Stavanger
oppdatert: 21-04-2019 14:50
Klart  
Klart  
   Vind: Sør 7.2 m/s
Vind: Sør 7.2 m/s
Temperatur: 17°C
Duggpunkt: 2°C
Fuktighet: 37%
Barometer: 1021 hPa
Sikt: More than 10 km
Skydetaljer: Klart
ENZV 211250Z 17014KT CAVOK 17/02 Q1021 NOSIG
ENGM - Oslo
oppdatert: 21-04-2019 14:50
Klart  
Klart  
   Vind: SSV 3.6 m/s
Vind: SSV 3.6 m/s
Temperatur: 19°C
Duggpunkt: 2°C
Fuktighet: 32%
Barometer: 1019 hPa
Sikt: More than 10 km
Skydetaljer: Klart
ENGM 211250Z 20007KT 140V250 CAVOK 19/02 Q1019 NOSIG
ESSA - Stockholm
oppdatert: 21-04-2019 14:50
Klart  
Klart  
   Vind: Sør 8.2 m/s<br />Gust to 8.2 m/s
Vind: Sør 8.2 m/s
Gust to 8.2 m/s
Temperatur: 14°C
Duggpunkt: 2°C
Fuktighet: 44%
Barometer: 1023 hPa
Sikt: More than 10 km
Skydetaljer: Klart
ESSA 211250Z 17016G26KT CAVOK 14/02 Q1023 NOSIG
EKCH - København
oppdatert: 21-04-2019 14:50
Klart  
Klart  
   Vind: ØNØ 2.1 m/s
Vind: ØNØ 2.1 m/s
Temperatur: 16°C
Duggpunkt: 0°C
Fuktighet: 34%
Barometer: 1024 hPa
Skyer: Klart
Sikt: 10 km
Skydetaljer: Klart
EKCH 211250Z AUTO 07004KT 030V120 9999NDV NCD 16/M00 Q1024 NOSIG
ENHV - Nordkapp
oppdatert: 18-04-2019 23:20
Ikkje oppdatert
Delvis Skyet  
Delvis Skyet  
   Vind: VEST 5.1 m/s
Vind: VEST 5.1 m/s
Temperatur: 4°C
Wind Chill: 0°C
Duggpunkt: 0°C
Fuktighet: 75%
Barometer: 1026 hPa
Skyer: Delvis Skyet
Sikt: More than 10 km
Skydetaljer: Delvis Skyet 701 m,
Delvis Skyet 1371.6 m
ENHV 182120Z 26010KT 9999 SCT023 SCT045 04/00 Q1026
ENSB - Svalbard
oppdatert: 21-04-2019 14:50
Low Drifting, Snø, Delvis Skyet  
Low Drifting, Snø, Delvis Skyet  
   Vind: ØSØ 8.2 m/s
Vind: ØSØ 8.2 m/s
Temperatur: -7°C
Wind Chill: -16°C
Duggpunkt: -13°C
Fuktighet: 63%
Barometer: 1001 hPa
Skyer: Delvis Skyet
Sikt: More than 10 km
Skydetaljer: få skyer 609.6 m,
Delvis Skyet 4572 m
ENSB 211250Z 12016KT 090V140 9999 DRSN FEW020 SCT150 M07/M13 Q1001 RMK WIND 1400FT 11024KT
NZSP - Sørpolen
oppdatert: 21-04-2019 13:50
Blowing, Snø, Delvis Skyet  
Blowing, Snø, Delvis Skyet  
   Vind: NØ 5.1 m/s
Vind: NØ 5.1 m/s
Temperatur: -54°C
Wind Chill: -73°C
Barometer: 971.9 hPa
Skyer: Delvis Skyet
Sikt: 1.2 km
Skydetaljer: få skyer 792.5 m,
Delvis Skyet 335.3 m
NZSP 211150Z 05010KT 1200 BLSN FEW026 SCT011 M54/ A2870 RMK CLN AIR 04012G18KT ALL WNDS GRID
 

Script utviklet av  Saratoga-weather.org Tilrettelagt for malen av  Weerstation Leuven

Utstyr vi bruker:

Værstsjon
Davis VP2+ 24/H Fars, Online-Ups, 4G Backup.

Værprogram
Weather Display

Ekstra utstyr
Custom builds pcs

Provider
Hosted By Pro Isp

Davis VP2+ 24/H Fars, Online-Ups, 4G Backup.

Weather Display

Custom builds pcs

Hosted By Pro Isp